Indiahoma, Oklahoma
Current Conditions -  °F | °C
As of 11:53 AM on Thursday 29 Jan 2015 (Local Time) from KLAW Reporting Station
Broken Clouds Broken Clouds  
Wind Chill: 55°   Ceiling: 11000
Heat Index: 55°   Visibility: 10mi
Dew Point: 32°   Wind: 21mph
Humidity: 42%   Direction: 360°N
Pressure: 30.42"   Gusts: 31mph
Location:  34.62°N, 98.75°W
Report Text: KLAW 291753Z 36018G27KT 10SM BKN110 13/00 A3042 RMK AO2 PK WND 36027/1731 SLP301 T01280000 10128 20111 51034
Loading
Personal Weather Stations






























Interactive Weather Map New forecast layout! Learn more

10-Day Weather Forecast

Advertisements
Track Severe Weather on mobile